createdAt,value
2023-03-22T00:01:12.405Z,71.53223
2023-03-22T00:03:12.303Z,71.61523
2023-03-22T00:05:12.233Z,71.4707
2023-03-22T00:07:12.711Z,71.53809
2023-03-22T00:09:12.217Z,72.16309
2023-03-22T00:11:12.570Z,71.89941
2023-03-22T00:13:12.230Z,71.50098
2023-03-22T00:15:12.220Z,71.6123
2023-03-22T00:16:27.370Z,71.57715
2023-03-22T00:18:27.269Z,71.94043
2023-03-22T00:20:27.630Z,71.91992
2023-03-22T00:22:27.218Z,71.73535
2023-03-22T00:24:27.303Z,71.98633
2023-03-22T00:26:27.303Z,71.90625
2023-03-22T00:28:27.287Z,72.78418
2023-03-22T00:32:05.546Z,72.43555
2023-03-22T00:34:05.610Z,72.27148
2023-03-22T00:36:05.527Z,72.83691
2023-03-22T00:38:05.597Z,73.24219
2023-03-22T00:40:05.504Z,73.03516
2023-03-22T00:42:05.613Z,72.99414
2023-03-22T00:44:05.538Z,72.84668
2023-03-22T00:47:15.746Z,73.26367
2023-03-22T00:49:15.774Z,72.90527
2023-03-22T00:51:15.810Z,73.24121
2023-03-22T00:53:15.813Z,72.74316
2023-03-22T00:55:15.756Z,72.83789
2023-03-22T00:57:15.831Z,72.60742
2023-03-22T00:59:15.771Z,73.17969
2023-03-22T01:02:41.608Z,73.14063
2023-03-22T01:04:41.710Z,73.04297
2023-03-22T01:06:41.638Z,73.22949
2023-03-22T01:08:41.673Z,73.30762
2023-03-22T01:10:41.921Z,72.9043
2023-03-22T01:12:41.619Z,73.14746
2023-03-22T01:14:41.624Z,73.02246
2023-03-22T01:17:31.665Z,73.43359
2023-03-22T01:19:31.679Z,73.54883
2023-03-22T01:21:31.761Z,73.53125
2023-03-22T01:23:31.689Z,73.56836
2023-03-22T01:25:31.668Z,73.70801
2023-03-22T01:27:31.699Z,74.02344
2023-03-22T01:29:31.830Z,74.13672
2023-03-22T01:32:30.900Z,74.41113
2023-03-22T01:34:30.817Z,74.22949
2023-03-22T01:36:30.834Z,74.48926
2023-03-22T01:38:30.864Z,74.58008
2023-03-22T01:40:30.855Z,74.53516
2023-03-22T01:42:30.811Z,74.83789
2023-03-22T01:44:30.852Z,74.83691
2023-03-22T01:47:27.671Z,74.80566
2023-03-22T01:49:27.558Z,74.82422
2023-03-22T01:51:27.586Z,74.77051
2023-03-22T01:53:27.640Z,74.95996
2023-03-22T01:55:27.602Z,75.12793
2023-03-22T01:57:27.543Z,74.75
2023-03-22T01:59:27.646Z,74.92188
2023-03-22T02:01:27.697Z,75.10352
2023-03-22T02:02:53.766Z,75.30176
2023-03-22T02:04:53.630Z,75.47949
2023-03-22T02:06:53.669Z,74.99023
2023-03-22T02:08:53.549Z,75.08203
2023-03-22T02:10:53.774Z,75.43066
2023-03-22T02:12:53.645Z,75.16211
2023-03-22T02:14:53.726Z,75.16016
2023-03-22T02:17:57.211Z,74.73535
2023-03-22T02:19:57.084Z,75.13086
2023-03-22T02:21:57.039Z,74.84473
2023-03-22T02:23:56.972Z,75.14453
2023-03-22T02:25:56.971Z,74.72266
2023-03-22T02:27:56.908Z,74.99023
2023-03-22T02:29:57.039Z,75.0166
2023-03-22T02:32:54.368Z,74.90332
2023-03-22T02:34:54.438Z,74.62109
2023-03-22T02:36:54.601Z,74.66602
2023-03-22T02:38:54.384Z,74.81836
2023-03-22T02:40:54.413Z,74.53711
2023-03-22T02:42:54.516Z,74.88281
2023-03-22T02:44:54.409Z,74.46289
2023-03-22T02:46:54.419Z,74.63477
2023-03-22T02:48:40.290Z,75.06152
2023-03-22T02:50:40.834Z,74.86035
2023-03-22T02:52:40.219Z,74.95996
2023-03-22T02:54:40.224Z,75.10254
2023-03-22T02:56:40.151Z,74.71777
2023-03-22T02:58:40.179Z,74.75781
2023-03-22T03:00:40.670Z,74.94531
2023-03-22T03:03:39.117Z,74.69336
2023-03-22T03:05:39.111Z,74.83105
2023-03-22T03:07:39.140Z,74.76172
2023-03-22T03:09:39.183Z,74.62305
2023-03-22T03:11:39.081Z,74.85059
2023-03-22T03:13:39.133Z,74.58301
2023-03-22T03:15:39.088Z,74.67969
2023-03-22T03:18:39.189Z,74.09961
2023-03-22T03:20:39.920Z,74.44043
2023-03-22T03:22:39.153Z,74.93848
2023-03-22T03:24:39.201Z,75.18262
2023-03-22T03:26:39.148Z,75.42383
2023-03-22T03:28:39.233Z,74.83105
2023-03-22T03:30:39.912Z,74.6543
2023-03-22T03:34:09.641Z,74.27148
2023-03-22T03:36:09.621Z,74.78418
2023-03-22T03:38:09.592Z,74.89941
2023-03-22T03:40:09.665Z,74.78125
2023-03-22T03:42:09.614Z,74.98828
2023-03-22T03:44:09.638Z,74.63477
2023-03-22T03:46:09.747Z,74.65234
2023-03-22T03:49:36.854Z,74.70508
2023-03-22T03:51:37.057Z,74.91309
2023-03-22T03:53:36.821Z,75.20313
2023-03-22T03:55:36.785Z,75.4541
2023-03-22T03:57:36.777Z,75.93066
2023-03-22T03:59:36.775Z,75.4834
2023-03-22T04:01:36.768Z,76.09961
2023-03-22T04:04:31.560Z,76.15234
2023-03-22T04:06:31.447Z,75.7832
2023-03-22T04:08:31.433Z,75.86133
2023-03-22T04:10:31.478Z,76.19824
2023-03-22T04:12:31.469Z,76.11816
2023-03-22T04:14:31.443Z,76.44238
2023-03-22T04:16:31.588Z,75.75684
2023-03-22T04:19:37.201Z,75.29785
2023-03-22T04:21:37.272Z,75.28906
2023-03-22T04:23:37.195Z,76.05176
2023-03-22T04:25:37.263Z,75.41504
2023-03-22T04:27:37.363Z,75.90332
2023-03-22T04:29:37.184Z,75.35059
2023-03-22T04:31:37.295Z,75.74219
2023-03-22T04:34:52.959Z,75.66992
2023-03-22T04:36:52.980Z,75.95508
2023-03-22T04:38:52.948Z,75.10547
2023-03-22T04:40:53.010Z,75.35254
2023-03-22T04:42:53.325Z,75.12988
2023-03-22T04:44:53.128Z,75.22656
2023-03-22T04:46:53.200Z,75.47168
2023-03-22T04:49:47.128Z,75.38672
2023-03-22T04:51:47.105Z,74.9541
2023-03-22T04:53:47.128Z,75.27539
2023-03-22T04:55:47.463Z,75.22852
2023-03-22T04:57:47.312Z,75.06348
2023-03-22T04:59:47.308Z,75.5166
2023-03-22T05:01:47.485Z,75.32227
2023-03-22T05:04:53.416Z,75.52148
2023-03-22T05:06:53.725Z,75.39746
2023-03-22T05:08:53.656Z,75.4502
2023-03-22T05:10:53.524Z,75.43262
2023-03-22T05:12:53.552Z,75.24512
2023-03-22T05:14:53.706Z,75.3457
2023-03-22T05:16:53.412Z,75.61328
2023-03-22T05:19:43.230Z,75.59473
2023-03-22T05:21:43.301Z,75.24121
2023-03-22T05:23:43.376Z,75.49023
2023-03-22T05:25:43.402Z,75.40625
2023-03-22T05:27:43.388Z,75.25098
2023-03-22T05:29:43.299Z,75.07031
2023-03-22T05:31:43.510Z,75.03125
2023-03-22T05:33:43.288Z,74.73926
2023-03-22T05:35:29.832Z,74.47266
2023-03-22T05:37:29.846Z,74.10645
2023-03-22T05:39:29.789Z,74.22656
2023-03-22T05:41:29.715Z,74.87402
2023-03-22T05:43:29.616Z,75.33691
2023-03-22T05:45:29.605Z,74.95996
2023-03-22T05:47:29.638Z,74.68945
2023-03-22T05:50:05.270Z,75.0498
2023-03-22T05:52:05.177Z,74.79492
2023-03-22T05:54:05.273Z,75.0166
2023-03-22T05:56:05.293Z,74.74707
2023-03-22T05:58:05.371Z,74.46582
2023-03-22T06:00:05.307Z,75.2168
2023-03-22T06:02:05.395Z,75.7334
2023-03-22T06:04:05.321Z,74.64453
2023-03-22T06:05:14.939Z,74.9668
2023-03-22T06:07:14.784Z,74.85645
2023-03-22T06:09:18.225Z,74.76855
2023-03-22T06:11:14.783Z,74.91504
2023-03-22T06:13:14.940Z,74.8584
2023-03-22T06:15:14.912Z,74.7002
2023-03-22T06:17:14.811Z,75.05273
2023-03-22T06:19:14.772Z,74.32813
2023-03-22T06:20:42.924Z,74.62988
2023-03-22T06:22:42.894Z,74.90332
2023-03-22T06:24:42.991Z,75.7207
2023-03-22T06:26:43.063Z,75.4707
2023-03-22T06:28:43.460Z,75.4834
2023-03-22T06:30:44.192Z,75.38672
2023-03-22T06:32:43.484Z,75.19238
2023-03-22T06:35:53.338Z,74.63379
2023-03-22T06:37:51.883Z,74.84473
2023-03-22T06:39:52.880Z,75.22559
2023-03-22T06:41:52.405Z,75.20117
2023-03-22T06:43:52.490Z,75.61621
2023-03-22T06:45:52.079Z,74.50098
2023-03-22T06:47:53.048Z,74.65332
2023-03-22T06:50:57.119Z,74.19043
2023-03-22T06:52:57.193Z,74.61719
2023-03-22T06:54:58.471Z,74.3623
2023-03-22T06:56:56.686Z,74.27832
2023-03-22T06:58:56.430Z,75.58984
2023-03-22T07:00:56.601Z,74.30176
2023-03-22T07:02:56.301Z,75.29102
2023-03-22T07:06:38.016Z,75.03711
2023-03-22T07:08:38.465Z,74.97266
2023-03-22T07:10:39.057Z,74.79004
2023-03-22T07:12:38.238Z,75.15137
2023-03-22T07:14:38.199Z,75.76465
2023-03-22T07:16:37.971Z,75.06543
2023-03-22T07:18:39.051Z,75.43262
2023-03-22T07:21:19.469Z,75.13965
2023-03-22T07:23:19.495Z,74.85645
2023-03-22T07:25:19.666Z,75.49609
2023-03-22T07:27:19.498Z,75.04395
2023-03-22T07:29:19.425Z,75.37988
2023-03-22T07:31:19.405Z,75.64551
2023-03-22T07:33:19.490Z,75.1709
2023-03-22T07:36:15.816Z,75.16895
2023-03-22T07:38:15.535Z,74.81641
2023-03-22T07:40:15.672Z,74.69824
2023-03-22T07:42:15.561Z,74.46289
2023-03-22T07:44:18.601Z,74.85742
2023-03-22T07:46:15.440Z,74.82129
2023-03-22T07:48:15.599Z,74.47656
2023-03-22T07:50:15.800Z,74.61523
2023-03-22T07:52:14.613Z,74.53906
2023-03-22T07:54:33.207Z,74.73047
2023-03-22T07:56:14.358Z,74.60352
2023-03-22T07:58:14.381Z,74.70898
2023-03-22T08:00:14.388Z,74.47266
2023-03-22T08:02:14.602Z,74.7998
2023-03-22T08:04:14.517Z,74.51855
2023-03-22T08:07:12.449Z,74.2041
2023-03-22T08:09:12.190Z,74.30566
2023-03-22T08:11:11.858Z,74.12598
2023-03-22T08:13:12.134Z,74.80273
2023-03-22T08:15:11.875Z,74.49316
2023-03-22T08:17:12.165Z,74.73828
2023-03-22T08:19:12.030Z,74.71191
2023-03-22T08:21:53.595Z,74.04785
2023-03-22T08:23:53.419Z,74.55762
2023-03-22T08:25:53.878Z,74.43359
2023-03-22T08:27:53.815Z,74.47266
2023-03-22T08:29:53.743Z,74.63086
2023-03-22T08:31:53.951Z,74.16895
2023-03-22T08:33:53.580Z,72.94141
2023-03-22T08:36:59.505Z,73.79395
2023-03-22T08:38:59.296Z,74.1416
2023-03-22T08:40:59.434Z,74.66016
2023-03-22T08:42:59.520Z,75.17871
2023-03-22T08:44:59.351Z,74.57324
2023-03-22T08:47:02.806Z,75.16406
2023-03-22T08:48:59.652Z,74.83301
2023-03-22T08:50:59.494Z,74.65137
2023-03-22T08:52:58.500Z,74.8457
2023-03-22T08:54:58.372Z,74.66309
2023-03-22T08:56:58.294Z,74.32422
2023-03-22T08:58:58.495Z,74.41992
2023-03-22T09:00:58.892Z,73.94824
2023-03-22T09:02:58.295Z,73.71484
2023-03-22T09:04:58.477Z,74.42871
2023-03-22T09:08:07.034Z,74.65723
2023-03-22T09:10:04.203Z,73.67383
2023-03-22T09:12:04.154Z,73.59668
2023-03-22T09:14:04.104Z,73.61816
2023-03-22T09:16:04.247Z,73.01074
2023-03-22T09:18:04.478Z,74.02734
2023-03-22T09:20:13.346Z,72.82422
2023-03-22T09:22:54.629Z,73.19141
2023-03-22T09:24:54.653Z,72.36035
2023-03-22T09:26:54.634Z,72.37305
2023-03-22T09:28:54.919Z,71.73633
2023-03-22T09:30:54.527Z,72.12598
2023-03-22T09:32:54.732Z,71.21973
2023-03-22T09:43:53.574Z,71.73438
2023-03-22T09:45:53.574Z,71.72949
2023-03-22T09:47:53.600Z,71.91797
2023-03-22T09:49:54.386Z,72.18652
2023-03-22T09:53:10.523Z,71.07324
2023-03-22T09:55:10.489Z,70.38672
2023-03-22T09:57:10.515Z,71.5791
2023-03-22T09:59:10.412Z,71.0791
2023-03-22T10:01:10.664Z,71.26758
2023-03-22T10:03:10.357Z,69.8418
2023-03-22T10:05:10.411Z,71.36328
2023-03-22T10:08:37.710Z,70.5127
2023-03-22T10:10:37.760Z,67.07813
2023-03-22T10:12:37.846Z,68.89844
2023-03-22T10:14:37.671Z,70.05664
2023-03-22T10:16:38.012Z,69.70313
2023-03-22T10:18:37.789Z,70.00488
2023-03-22T10:20:38.082Z,70.20508
2023-03-22T10:23:52.365Z,70.91406
2023-03-22T10:25:52.344Z,70.70801
2023-03-22T10:27:52.474Z,70.05371
2023-03-22T10:29:52.345Z,70.22754
2023-03-22T10:31:52.515Z,69.51855
2023-03-22T10:33:52.579Z,69.52246
2023-03-22T10:35:52.568Z,69.43652
2023-03-22T10:38:58.166Z,68.79395
2023-03-22T10:40:58.023Z,68.98438
2023-03-22T10:42:58.126Z,67.84277
2023-03-22T10:44:57.888Z,67.33789
2023-03-22T10:46:58.037Z,68.37109
2023-03-22T10:48:58.072Z,68.45508
2023-03-22T10:50:58.022Z,69.18457
2023-03-22T10:54:09.430Z,69.27344
2023-03-22T10:56:09.406Z,68.34668
2023-03-22T10:58:09.508Z,68.04102
2023-03-22T11:00:09.364Z,69.32227
2023-03-22T11:02:09.775Z,69.26758
2023-03-22T11:04:09.661Z,69.32715
2023-03-22T11:06:10.465Z,68.24316
2023-03-22T11:08:42.382Z,69.7207
2023-03-22T11:10:42.430Z,68.88477
2023-03-22T11:12:42.310Z,70.1748
2023-03-22T11:14:42.726Z,69.50098
2023-03-22T11:16:42.465Z,69.95508
2023-03-22T11:18:42.393Z,69.16211
2023-03-22T11:20:43.619Z,70.13965
2023-03-22T11:24:36.894Z,70.01563
2023-03-22T11:26:41.643Z,67.76367
2023-03-22T11:28:36.806Z,68.18848
2023-03-22T11:30:36.801Z,68.09766
2023-03-22T11:32:37.158Z,67.59277
2023-03-22T11:34:36.818Z,67.80078
2023-03-22T11:36:36.971Z,67.53613
2023-03-22T11:39:40.393Z,67.88672
2023-03-22T11:41:40.488Z,68.61621
2023-03-22T11:43:40.338Z,68.0918
2023-03-22T11:45:40.494Z,67.37598
2023-03-22T11:47:40.436Z,67.73535
2023-03-22T11:49:40.304Z,68.84375
2023-03-22T11:51:40.408Z,69.36133
2023-03-22T11:54:10.068Z,67.19629
2023-03-22T11:56:10.093Z,68.55078
2023-03-22T11:58:10.189Z,68.21973
2023-03-22T12:00:10.018Z,67.85156
2023-03-22T12:02:10.089Z,69.36621
2023-03-22T12:04:09.897Z,68.41016
2023-03-22T12:06:09.971Z,67.70801
2023-03-22T12:10:05.051Z,67.07617
2023-03-22T12:12:05.175Z,68.13184
2023-03-22T12:14:05.006Z,66.63477
2023-03-22T12:16:05.103Z,67.04297
2023-03-22T12:18:08.470Z,68.28125
2023-03-22T12:20:04.869Z,66.59863
2023-03-22T12:22:04.958Z,66.35938
2023-03-22T12:24:22.848Z,66.46289
2023-03-22T12:26:22.684Z,66.07422
2023-03-22T12:28:22.717Z,66.05664
2023-03-22T12:30:22.706Z,65.9375
2023-03-22T12:32:22.759Z,66.44238
2023-03-22T12:34:22.846Z,65.22461
2023-03-22T12:36:22.823Z,65.125
2023-03-22T12:38:22.884Z,65.85059
2023-03-22T12:39:46.540Z,66.20996
2023-03-22T12:41:46.435Z,64.89844
2023-03-22T12:43:46.468Z,65.00488
2023-03-22T12:45:46.537Z,65.48926
2023-03-22T12:47:46.990Z,65.44824
2023-03-22T12:49:46.473Z,65.13477
2023-03-22T12:51:46.634Z,64.3877
2023-03-22T12:54:52.722Z,63.97949
2023-03-22T12:56:52.939Z,63.98633
2023-03-22T12:58:53.119Z,65.00586
2023-03-22T13:00:52.953Z,64.81836
2023-03-22T13:02:53.233Z,65.29492
2023-03-22T13:04:52.892Z,64.78223
2023-03-22T13:06:52.908Z,63.8623
2023-03-22T13:10:43.171Z,65.13281
2023-03-22T13:12:42.551Z,63.38086
2023-03-22T13:14:42.840Z,63.18945
2023-03-22T13:16:42.574Z,62.88086
2023-03-22T13:18:42.508Z,62.77734
2023-03-22T13:20:42.909Z,63.06836
2023-03-22T13:22:42.660Z,61.18457
2023-03-22T13:25:31.446Z,63.66992
2023-03-22T13:27:31.477Z,62.20117
2023-03-22T13:29:31.376Z,62.69727
2023-03-22T13:31:31.456Z,63.06641
2023-03-22T13:33:31.404Z,64.4375
2023-03-22T13:35:31.863Z,63.80957
2023-03-22T13:37:31.874Z,63.2998
2023-03-22T13:41:03.844Z,63.46289
2023-03-22T13:43:03.899Z,64.14844
2023-03-22T13:45:03.851Z,63.42871
2023-03-22T13:47:03.785Z,62.91504
2023-03-22T13:49:03.853Z,61.43262
2023-03-22T13:51:03.771Z,61.47949
2023-03-22T13:53:03.877Z,61.09961
2023-03-22T13:55:53.745Z,61.43066
2023-03-22T13:57:53.758Z,61.2627
2023-03-22T14:00:10.691Z,59.13477
2023-03-22T14:01:53.646Z,60.90234
2023-03-22T14:03:53.880Z,61.22461
2023-03-22T14:05:56.914Z,62.64063
2023-03-22T14:07:53.634Z,63.86621
2023-03-22T14:11:04.769Z,61.47363
2023-03-22T14:13:04.756Z,62.35938
2023-03-22T14:15:04.682Z,62.35547
2023-03-22T14:17:04.726Z,62.2002
2023-03-22T14:19:04.650Z,60.62598
2023-03-22T14:21:04.617Z,62.05176
2023-03-22T14:47:19.823Z,61.51855
2023-03-22T14:49:19.712Z,61.14063
2023-03-22T14:51:19.838Z,61.91895
2023-03-22T14:53:19.912Z,61.89453
2023-03-22T14:56:52.568Z,61.4668
2023-03-22T14:58:52.545Z,60.16602
2023-03-22T15:00:52.573Z,60.67871
2023-03-22T15:02:52.685Z,60.87988
2023-03-22T15:04:52.585Z,61.57227
2023-03-22T15:06:52.563Z,60.96484
2023-03-22T15:08:52.728Z,61.3418
2023-03-22T15:11:46.093Z,61.125
2023-03-22T15:13:46.114Z,62.30078
2023-03-22T15:15:46.329Z,62.46875
2023-03-22T15:17:46.260Z,62.47266
2023-03-22T15:19:46.162Z,62.78613
2023-03-22T15:21:46.258Z,62.53027
2023-03-22T15:23:46.239Z,62.59375
2023-03-22T15:26:37.011Z,62.43555
2023-03-22T15:28:37.142Z,61.91406
2023-03-22T15:30:37.089Z,61.39453
2023-03-22T15:32:37.114Z,61.48926
2023-03-22T15:34:37.237Z,61.41992
2023-03-22T15:36:37.191Z,61.66113
2023-03-22T15:38:47.088Z,61.78125
2023-03-22T15:42:06.709Z,61.75
2023-03-22T15:44:06.797Z,61.11719
2023-03-22T15:46:06.756Z,60.73145
2023-03-22T15:48:06.474Z,60.33789
2023-03-22T15:50:06.345Z,61.24414
2023-03-22T15:52:06.622Z,60.33984
2023-03-22T15:54:06.425Z,61.11719
2023-03-22T15:57:29.566Z,60.33301
2023-03-22T15:59:29.543Z,60.73633
2023-03-22T16:01:29.540Z,60.54199
2023-03-22T16:03:29.564Z,60.93555
2023-03-22T16:05:29.515Z,60.31445
2023-03-22T16:07:29.718Z,60.50781
2023-03-22T16:09:29.474Z,60.25
2023-03-22T16:11:54.841Z,60.34082
2023-03-22T16:13:54.949Z,60.43359
2023-03-22T16:15:54.773Z,60.55469
2023-03-22T16:17:54.808Z,60.34668
2023-03-22T16:19:54.836Z,60.51758
2023-03-22T16:21:54.810Z,60.57422
2023-03-22T16:23:54.887Z,61.1123
2023-03-22T16:25:54.896Z,61.14258
2023-03-22T16:27:22.827Z,61.3418
2023-03-22T16:29:22.946Z,61.57031
2023-03-22T16:31:23.204Z,61.35352
2023-03-22T16:33:22.861Z,62.29199
2023-03-22T16:35:22.843Z,62.57813
2023-03-22T16:37:22.749Z,62.79004
2023-03-22T16:39:22.916Z,62.82813
2023-03-22T16:42:17.218Z,63.27637
2023-03-22T16:44:17.185Z,63.86523
2023-03-22T16:46:17.247Z,63.67773
2023-03-22T16:48:17.316Z,64.74121
2023-03-22T16:50:17.270Z,64.65332
2023-03-22T16:52:17.246Z,64.70898
2023-03-22T16:54:17.242Z,64.30566
2023-03-22T16:57:32.863Z,64.41113
2023-03-22T16:59:32.606Z,64.30664
2023-03-22T17:01:32.707Z,64.52637
2023-03-22T17:03:32.741Z,64.7998
2023-03-22T17:05:32.625Z,65.25488
2023-03-22T17:07:32.851Z,65.85059
2023-03-22T17:09:32.632Z,65.47754
2023-03-22T17:12:44.636Z,65.64355
2023-03-22T17:14:44.589Z,66.3125
2023-03-22T17:16:44.668Z,66.43848
2023-03-22T17:18:44.886Z,66.48047
2023-03-22T17:20:44.571Z,66.7373
2023-03-22T17:22:44.639Z,66.69434
2023-03-22T17:24:44.659Z,66.4541
2023-03-22T17:27:46.129Z,66.57813
2023-03-22T17:29:46.307Z,67.44043
2023-03-22T17:31:57.988Z,67.38086
2023-03-22T17:33:46.437Z,67.36621
2023-03-22T17:35:46.414Z,67.66602
2023-03-22T17:37:46.009Z,68.76465
2023-03-22T17:41:45.954Z,68.79199
2023-03-22T17:43:00.933Z,68.5957
2023-03-22T17:45:00.873Z,68.55566
2023-03-22T17:49:01.517Z,68.70508
2023-03-22T17:51:00.923Z,68.74707
2023-03-22T17:53:00.983Z,68.87598
2023-03-22T17:55:19.481Z,68.87305
2023-03-22T17:58:45.022Z,69.40332
2023-03-22T18:00:44.820Z,69.62598
2023-03-22T18:02:45.165Z,69.44629
2023-03-22T18:04:44.766Z,69.25098
2023-03-22T18:06:44.901Z,69.60156
2023-03-22T18:08:44.784Z,70.4209
2023-03-22T18:10:44.786Z,69.87402
2023-03-22T18:14:21.329Z,70.00293
2023-03-22T18:16:01.462Z,70.19043
2023-03-22T18:18:01.327Z,69.90039
2023-03-22T18:20:17.494Z,69.9834
2023-03-22T18:22:01.336Z,70.10352
2023-03-22T18:24:01.405Z,70.06445
2023-03-22T18:26:02.515Z,71.38379
2023-03-22T18:28:29.083Z,70.99512
2023-03-22T18:30:29.258Z,70.80957
2023-03-22T18:32:55.189Z,71.77539
2023-03-22T18:34:29.113Z,71.43945
2023-03-22T18:36:29.635Z,71.08008
2023-03-22T18:39:17.244Z,71.35254
2023-03-22T18:41:12.741Z,71.1582
2023-03-22T18:44:21.798Z,71.68359
2023-03-22T18:46:22.003Z,71.62402
2023-03-22T18:48:21.873Z,71.40527
2023-03-22T18:50:21.861Z,70.81934
2023-03-22T18:52:44.410Z,70.88867
2023-03-22T18:54:21.794Z,71.18848
2023-03-22T18:56:21.811Z,70.94434
2023-03-22T18:59:03.690Z,71.37695
2023-03-22T19:01:03.598Z,71.29492
2023-03-22T19:03:03.696Z,71.65332
2023-03-22T19:05:03.747Z,72.00684
2023-03-22T19:07:04.765Z,71.48438
2023-03-22T19:09:03.711Z,72.21094
2023-03-22T19:11:03.826Z,72.71191
2023-03-22T19:14:53.231Z,72.14355
2023-03-22T19:16:02.749Z,72.17676
2023-03-22T19:18:02.766Z,72.20313
2023-03-22T19:20:02.767Z,71.55957
2023-03-22T19:22:02.738Z,71.49707
2023-03-22T19:24:02.765Z,71.99707
2023-03-22T19:26:02.898Z,71.70801
2023-03-22T19:29:10.432Z,71.67188
2023-03-22T19:31:10.597Z,71.25977
2023-03-22T19:35:10.517Z,72.31738
2023-03-22T19:37:10.725Z,72.2627
2023-03-22T19:39:14.980Z,72.83105
2023-03-22T19:41:30.300Z,74.80078
2023-03-22T19:44:12.966Z,74.20996
2023-03-22T19:46:12.951Z,74.92969
2023-03-22T19:48:12.910Z,74.11328
2023-03-22T19:50:12.914Z,73.63672
2023-03-22T19:52:13.025Z,72.96387
2023-03-22T19:56:12.839Z,72.94922
2023-03-22T19:58:12.899Z,72.83105
2023-03-22T20:00:28.721Z,73.27344
2023-03-22T20:01:45.802Z,73.49512
2023-03-22T20:03:45.741Z,73.54395
2023-03-22T20:05:51.101Z,72.97461
2023-03-22T20:07:45.878Z,72.93848
2023-03-22T20:09:45.818Z,73.25977
2023-03-22T20:11:45.862Z,73.14063
2023-03-22T20:15:19.718Z,73.16504
2023-03-22T20:17:26.479Z,72.95605
2023-03-22T20:19:19.711Z,74.34668
2023-03-22T20:21:19.715Z,75.77539
2023-03-22T20:23:19.831Z,75.63965
2023-03-22T20:25:19.738Z,75.7041
2023-03-22T20:27:19.766Z,75.14063
2023-03-22T20:30:16.676Z,75.97559
2023-03-22T20:32:16.671Z,75.05566
2023-03-22T20:34:16.620Z,74.46875
2023-03-22T20:36:16.846Z,74.34277
2023-03-22T20:38:16.663Z,74.04785
2023-03-22T20:40:16.697Z,73.69824
2023-03-22T20:42:16.646Z,75.42188
2023-03-22T20:45:10.265Z,75.72656
2023-03-22T20:47:10.203Z,74.70996
2023-03-22T20:49:10.284Z,74.49609
2023-03-22T20:51:10.239Z,74.9541
2023-03-22T20:53:10.485Z,75.12207
2023-03-22T20:55:10.327Z,74.48145
2023-03-22T20:57:10.288Z,74.15137
2023-03-22T21:00:59.071Z,73.93066
2023-03-22T21:02:59.055Z,74.01758
2023-03-22T21:04:59.156Z,74.2793
2023-03-22T21:06:59.149Z,74.62305
2023-03-22T21:08:59.295Z,74.50684
2023-03-22T21:10:59.040Z,75.40332
2023-03-22T21:12:59.114Z,75.47363
2023-03-22T21:15:25.379Z,75.94043
2023-03-22T21:17:25.432Z,76.05957
2023-03-22T21:19:25.727Z,76.29297
2023-03-22T21:21:25.494Z,75.73926
2023-03-22T21:23:25.352Z,75.98145
2023-03-22T21:25:25.405Z,76.47363
2023-03-22T21:27:25.653Z,76.74707
2023-03-22T21:31:16.855Z,76.91406
2023-03-22T21:33:16.460Z,76.5752
2023-03-22T21:35:16.779Z,75.75488
2023-03-22T21:37:16.610Z,75.6084
2023-03-22T21:39:16.477Z,75.84961
2023-03-22T21:41:16.280Z,76.33105
2023-03-22T21:43:16.323Z,76.60254
2023-03-22T21:46:24.857Z,76.6875
2023-03-22T21:48:24.597Z,76.27637
2023-03-22T21:50:24.645Z,76.69922
2023-03-22T21:52:24.672Z,77.4541
2023-03-22T21:54:24.811Z,77.12891
2023-03-22T21:56:24.598Z,76.69434
2023-03-22T21:58:24.601Z,77.23926
2023-03-22T22:01:38.110Z,77.00195
2023-03-22T22:03:37.707Z,76.55176
2023-03-22T22:05:37.789Z,76.82324
2023-03-22T22:07:37.918Z,76.39355
2023-03-22T22:09:38.241Z,76.3623
2023-03-22T22:11:37.849Z,76.47754
2023-03-22T22:13:38.879Z,76.37402
2023-03-22T22:16:40.956Z,76.03223
2023-03-22T22:18:40.921Z,77.16309
2023-03-22T22:20:41.015Z,77.11523
2023-03-22T22:22:40.837Z,76.25781
2023-03-22T22:24:40.874Z,75.37793
2023-03-22T22:26:40.838Z,75.24023
2023-03-22T22:28:40.929Z,76.25
2023-03-22T22:31:42.162Z,75.36328
2023-03-22T22:33:42.242Z,74.9707
2023-03-22T22:35:42.470Z,74.57715
2023-03-22T22:37:42.203Z,74.12988
2023-03-22T22:39:42.177Z,73.97754
2023-03-22T22:41:42.142Z,74.80176
2023-03-22T22:43:42.145Z,76.48828
2023-03-22T22:47:04.369Z,76.46094
2023-03-22T22:49:04.365Z,77.59961
2023-03-22T22:51:04.286Z,77.21777
2023-03-22T22:53:04.280Z,76.27734
2023-03-22T22:55:04.432Z,75.58496
2023-03-22T22:57:04.435Z,74.91406
2023-03-22T22:59:04.403Z,75.09375
2023-03-22T23:02:08.408Z,74.81836
2023-03-22T23:04:08.339Z,74.44727
2023-03-22T23:06:08.253Z,74.44043
2023-03-22T23:08:08.344Z,74.77539
2023-03-22T23:10:08.484Z,74.96484
2023-03-22T23:12:08.319Z,75.9873
2023-03-22T23:14:08.304Z,76.2002
2023-03-22T23:16:48.018Z,76.40234
2023-03-22T23:18:47.964Z,75.99121
2023-03-22T23:20:48.063Z,76.95801
2023-03-22T23:22:47.963Z,77.11816
2023-03-22T23:24:48.037Z,77.15723
2023-03-22T23:26:48.037Z,77.02832
2023-03-22T23:28:48.110Z,76.6377
2023-03-22T23:32:42.021Z,76.16309
2023-03-22T23:34:42.229Z,75.7168
2023-03-22T23:36:42.453Z,74.93457
2023-03-22T23:38:42.530Z,75.10449
2023-03-22T23:40:42.121Z,75.26367
2023-03-22T23:42:42.317Z,75.0791
2023-03-22T23:44:41.981Z,75.56445
2023-03-22T23:46:58.652Z,75.125
2023-03-22T23:48:58.608Z,74.80859
2023-03-22T23:50:58.586Z,74.77148
2023-03-22T23:52:58.699Z,75.0752
2023-03-22T23:54:58.657Z,74.2666
2023-03-22T23:56:58.582Z,74.38379
2023-03-22T23:58:58.595Z,75.47363
